createdAt,value
2022-12-09T00:01:40.845Z,28.25
2022-12-09T00:04:08.221Z,22.90
2022-12-09T00:06:35.701Z,23.80
2022-12-09T00:09:03.156Z,27.13
2022-12-09T00:11:30.742Z,21.38
2022-12-09T00:13:59.104Z,22.77
2022-12-09T00:16:26.866Z,24.75
2022-12-09T00:18:54.177Z,23.08
2022-12-09T00:21:24.626Z,19.27
2022-12-09T00:23:53.135Z,20.40
2022-12-09T00:26:21.244Z,26.70
2022-12-09T00:28:49.469Z,27.98
2022-12-09T00:31:18.172Z,25.33
2022-12-09T00:33:45.507Z,23.30
2022-12-09T00:36:14.592Z,22.33
2022-12-09T00:38:42.435Z,22.95
2022-12-09T00:41:10.051Z,25.95
2022-12-09T00:43:37.642Z,20.88
2022-12-09T00:46:05.488Z,23.33
2022-12-09T00:48:38.500Z,21.20
2022-12-09T00:51:06.804Z,22.73
2022-12-09T00:53:34.065Z,21.80
2022-12-09T00:56:01.770Z,28.85
2022-12-09T00:58:29.100Z,21.13
2022-12-09T01:00:56.790Z,20.60
2022-12-09T01:03:24.327Z,17.30
2022-12-09T01:05:51.728Z,19.27
2022-12-09T01:08:19.370Z,20.23
2022-12-09T01:10:46.884Z,24.75
2022-12-09T01:13:14.932Z,22.25
2022-12-09T01:15:42.631Z,17.55
2022-12-09T01:18:11.634Z,18.67
2022-12-09T01:20:39.376Z,21.55
2022-12-09T01:23:06.722Z,21.27
2022-12-09T01:25:34.203Z,18.27
2022-12-09T01:28:01.663Z,22.67
2022-12-09T01:30:28.981Z,24.95
2022-12-09T01:32:56.293Z,17.67
2022-12-09T01:35:23.726Z,21.85
2022-12-09T01:37:51.154Z,21.90
2022-12-09T01:40:19.693Z,19.50
2022-12-09T01:42:47.446Z,17.73
2022-12-09T01:45:23.573Z,24.25
2022-12-09T01:48:00.274Z,24.08
2022-12-09T01:50:28.208Z,24.17
2022-12-09T01:52:56.378Z,27.40
2022-12-09T01:55:24.033Z,21.77
2022-12-09T01:57:51.691Z,20.20
2022-12-09T02:00:19.251Z,19.70
2022-12-09T02:02:48.243Z,21.00
2022-12-09T02:05:17.067Z,20.60
2022-12-09T02:07:44.509Z,18.38
2022-12-09T02:10:14.623Z,15.80
2022-12-09T02:12:58.178Z,18.58
2022-12-09T02:15:28.309Z,19.52
2022-12-09T02:17:58.740Z,21.23
2022-12-09T02:20:25.982Z,22.83
2022-12-09T02:22:56.948Z,15.55
2022-12-09T02:25:27.116Z,18.70
2022-12-09T02:28:11.752Z,12.85
2022-12-09T02:30:46.021Z,20.33
2022-12-09T02:33:13.361Z,21.08
2022-12-09T02:35:47.402Z,12.85
2022-12-09T02:38:17.721Z,19.38
2022-12-09T02:41:01.393Z,17.15
2022-12-09T02:43:31.258Z,12.15
2022-12-09T02:45:59.819Z,20.65
2022-12-09T02:48:32.881Z,17.75
2022-12-09T02:51:03.012Z,16.50
2022-12-09T02:53:31.683Z,24.08
2022-12-09T02:55:59.439Z,13.30
2022-12-09T02:58:26.709Z,14.35
2022-12-09T03:00:55.725Z,17.05
2022-12-09T03:03:23.734Z,16.45
2022-12-09T03:06:08.451Z,17.65
2022-12-09T03:08:45.061Z,18.40
2022-12-09T03:11:13.704Z,16.52
2022-12-09T03:13:41.122Z,14.85
2022-12-09T03:16:12.461Z,12.93
2022-12-09T03:18:44.140Z,14.73
2022-12-09T03:21:12.593Z,18.53
2022-12-09T03:23:40.229Z,20.73
2022-12-09T03:26:07.737Z,13.50
2022-12-09T03:28:41.431Z,19.65
2022-12-09T03:31:11.150Z,17.77
2022-12-09T03:33:38.718Z,14.70
2022-12-09T03:36:07.061Z,17.20
2022-12-09T03:38:36.760Z,17.77
2022-12-09T03:41:11.416Z,19.20
2022-12-09T03:43:41.615Z,16.65
2022-12-09T03:46:09.076Z,16.90
2022-12-09T03:48:36.956Z,15.40
2022-12-09T03:51:11.150Z,19.58
2022-12-09T03:53:44.270Z,14.82
2022-12-09T03:56:15.313Z,17.45
2022-12-09T03:58:44.038Z,15.05
2022-12-09T04:01:11.479Z,19.77
2022-12-09T04:03:39.750Z,18.20
2022-12-09T04:06:07.506Z,16.75
2022-12-09T04:08:34.968Z,17.85
2022-12-09T04:11:02.302Z,18.15
2022-12-09T04:13:29.951Z,17.73
2022-12-09T04:15:57.466Z,17.20
2022-12-09T04:18:24.843Z,16.05
2022-12-09T04:20:52.388Z,16.50
2022-12-09T04:23:19.698Z,18.15
2022-12-09T04:25:46.940Z,18.73
2022-12-09T04:28:14.594Z,17.25
2022-12-09T04:30:46.303Z,22.83
2022-12-09T04:33:13.933Z,14.25
2022-12-09T04:35:41.443Z,14.13
2022-12-09T04:38:08.981Z,19.48
2022-12-09T04:40:36.325Z,24.77
2022-12-09T04:43:03.881Z,20.05
2022-12-09T04:45:31.883Z,16.80
2022-12-09T04:47:59.622Z,19.35
2022-12-09T04:50:27.285Z,22.95
2022-12-09T04:52:54.588Z,22.63
2022-12-09T04:55:21.902Z,14.68
2022-12-09T04:57:49.345Z,16.05
2022-12-09T05:00:17.435Z,19.88
2022-12-09T05:02:44.872Z,17.42
2022-12-09T05:05:13.032Z,24.73
2022-12-09T05:07:40.716Z,19.08
2022-12-09T05:10:09.425Z,22.15
2022-12-09T05:12:37.195Z,19.92
2022-12-09T05:15:04.718Z,16.52
2022-12-09T05:17:32.518Z,15.88
2022-12-09T05:19:59.825Z,18.27
2022-12-09T05:22:27.249Z,19.20
2022-12-09T05:24:54.817Z,20.85
2022-12-09T05:27:22.413Z,22.92
2022-12-09T05:29:49.913Z,19.25
2022-12-09T05:32:17.506Z,23.63
2022-12-09T05:34:44.941Z,17.98
2022-12-09T05:37:18.292Z,16.15
2022-12-09T05:39:45.906Z,20.55
2022-12-09T05:42:13.356Z,17.58
2022-12-09T05:44:41.748Z,12.15
2022-12-09T05:47:09.345Z,23.20
2022-12-09T05:49:39.010Z,24.58
2022-12-09T05:52:06.851Z,20.08
2022-12-09T05:54:34.580Z,20.95
2022-12-09T05:57:04.390Z,16.92
2022-12-09T05:59:31.856Z,18.27
2022-12-09T06:02:01.372Z,22.60
2022-12-09T06:04:31.524Z,17.02
2022-12-09T06:06:59.411Z,19.55
2022-12-09T06:09:27.134Z,15.32
2022-12-09T06:11:55.781Z,15.20
2022-12-09T06:14:23.596Z,15.90
2022-12-09T06:16:51.143Z,17.70
2022-12-09T06:19:18.951Z,18.10
2022-12-09T06:21:46.668Z,18.80
2022-12-09T06:24:14.226Z,16.20
2022-12-09T06:26:41.788Z,14.27
2022-12-09T06:29:09.886Z,17.42
2022-12-09T06:31:38.643Z,17.00
2022-12-09T06:34:06.159Z,22.85
2022-12-09T06:36:33.878Z,15.05
2022-12-09T06:39:09.662Z,24.92
2022-12-09T06:41:37.965Z,17.80
2022-12-09T06:44:05.517Z,18.17
2022-12-09T06:46:33.083Z,22.45
2022-12-09T06:49:01.186Z,27.83
2022-12-09T06:51:29.446Z,23.50
2022-12-09T06:53:58.040Z,23.63
2022-12-09T06:56:25.613Z,30.13
2022-12-09T06:58:53.026Z,29.55
2022-12-09T07:01:24.869Z,24.10
2022-12-09T07:03:53.821Z,23.33
2022-12-09T07:06:21.930Z,34.28
2022-12-09T07:08:49.491Z,37.22
2022-12-09T07:11:16.899Z,31.67
2022-12-09T07:13:44.296Z,27.95
2022-12-09T07:16:11.935Z,29.10
2022-12-09T07:18:39.772Z,27.30
2022-12-09T07:21:08.148Z,25.23
2022-12-09T07:23:35.863Z,28.73
2022-12-09T07:26:05.623Z,26.95
2022-12-09T07:28:33.322Z,24.52
2022-12-09T07:31:00.882Z,26.08
2022-12-09T07:33:28.743Z,32.45
2022-12-09T07:35:56.985Z,44.13
2022-12-09T07:38:25.142Z,32.03
2022-12-09T07:40:52.861Z,33.60
2022-12-09T07:43:21.021Z,34.08
2022-12-09T07:45:49.424Z,25.75
2022-12-09T07:48:17.740Z,29.98
2022-12-09T07:50:45.360Z,37.75
2022-12-09T07:53:12.954Z,36.47
2022-12-09T07:55:40.717Z,29.25
2022-12-09T07:58:08.372Z,28.98
2022-12-09T08:00:35.927Z,38.60
2022-12-09T08:03:03.541Z,36.30
2022-12-09T08:05:31.106Z,30.58
2022-12-09T08:07:58.715Z,25.77
2022-12-09T08:10:26.317Z,39.17
2022-12-09T08:12:54.175Z,39.10
2022-12-09T08:15:21.584Z,32.22
2022-12-09T08:17:49.498Z,34.35
2022-12-09T08:20:17.321Z,32.65
2022-12-09T08:22:45.517Z,32.10
2022-12-09T08:25:13.441Z,37.42
2022-12-09T08:27:41.063Z,34.58
2022-12-09T08:30:09.299Z,39.20
2022-12-09T08:32:37.230Z,31.65
2022-12-09T08:35:06.514Z,37.63
2022-12-09T08:37:34.036Z,43.65
2022-12-09T08:40:01.534Z,41.95
2022-12-09T08:42:31.189Z,44.03
2022-12-09T08:45:02.037Z,42.00
2022-12-09T08:47:30.444Z,48.97
2022-12-09T08:49:58.465Z,50.08
2022-12-09T08:52:26.783Z,40.97
2022-12-09T08:54:54.274Z,37.83
2022-12-09T08:57:25.005Z,51.90
2022-12-09T08:59:52.544Z,37.65
2022-12-09T09:02:20.079Z,47.17
2022-12-09T09:04:47.995Z,44.60
2022-12-09T09:07:16.033Z,41.92
2022-12-09T09:09:44.043Z,38.67
2022-12-09T09:12:12.026Z,35.95
2022-12-09T09:14:39.721Z,48.50
2022-12-09T09:17:07.194Z,38.45
2022-12-09T09:19:35.257Z,40.33
2022-12-09T09:22:02.824Z,34.28
2022-12-09T09:24:30.930Z,43.90
2022-12-09T09:26:58.874Z,40.75
2022-12-09T09:29:26.311Z,42.80
2022-12-09T09:31:56.199Z,43.67
2022-12-09T09:34:25.124Z,46.13
2022-12-09T09:36:52.911Z,47.58
2022-12-09T09:39:20.853Z,51.28
2022-12-09T09:41:55.623Z,56.25
2022-12-09T09:44:26.548Z,50.50
2022-12-09T09:46:55.744Z,48.50
2022-12-09T09:49:37.497Z,56.17
2022-12-09T09:52:08.592Z,46.07
2022-12-09T09:54:36.447Z,59.47
2022-12-09T09:57:15.703Z,49.28
2022-12-09T09:59:50.181Z,56.90
2022-12-09T10:02:18.770Z,56.70
2022-12-09T10:04:55.774Z,50.58
2022-12-09T10:07:34.544Z,49.80
2022-12-09T10:10:03.138Z,57.05
2022-12-09T10:12:49.609Z,55.20
2022-12-09T10:15:20.554Z,52.90
2022-12-09T10:17:48.095Z,53.00
2022-12-09T10:20:18.561Z,46.72
2022-12-09T10:23:05.900Z,42.33
2022-12-09T10:25:35.646Z,48.63
2022-12-09T10:28:21.697Z,53.53
2022-12-09T10:30:51.011Z,43.13
2022-12-09T10:33:19.775Z,43.30
2022-12-09T10:35:47.788Z,45.85
2022-12-09T10:38:17.487Z,43.42
2022-12-09T10:40:55.107Z,54.78
2022-12-09T10:43:42.310Z,39.22
2022-12-09T10:46:20.373Z,44.58
2022-12-09T10:48:49.046Z,51.63
2022-12-09T10:51:31.164Z,59.00
2022-12-09T10:54:00.969Z,43.93
2022-12-09T10:56:30.132Z,57.45
2022-12-09T10:59:18.214Z,51.50
2022-12-09T11:01:49.842Z,41.70
2022-12-09T11:04:22.735Z,44.40
2022-12-09T11:06:55.636Z,44.05
2022-12-09T11:09:33.887Z,46.83
2022-12-09T11:12:02.646Z,36.83
2022-12-09T11:14:34.185Z,42.67
2022-12-09T11:17:12.918Z,46.58
2022-12-09T11:19:41.127Z,42.63
2022-12-09T11:22:15.228Z,42.58
2022-12-09T11:24:43.255Z,43.17
2022-12-09T11:27:28.218Z,38.97
2022-12-09T11:30:12.759Z,37.67
2022-12-09T11:32:56.462Z,35.92
2022-12-09T11:37:51.957Z,34.80
2022-12-09T11:40:19.288Z,43.50
2022-12-09T11:42:53.953Z,46.33
2022-12-09T11:45:41.442Z,40.67
2022-12-09T11:48:33.679Z,44.85
2022-12-09T11:51:02.774Z,40.38
2022-12-09T11:53:31.870Z,45.67
2022-12-09T11:56:13.090Z,39.53
2022-12-09T11:58:46.635Z,41.47
2022-12-09T12:01:16.609Z,41.85
2022-12-09T12:03:49.590Z,41.65
2022-12-09T12:06:20.433Z,45.95
2022-12-09T12:08:51.909Z,41.80
2022-12-09T12:11:21.794Z,48.13
2022-12-09T12:13:50.034Z,40.95
2022-12-09T12:16:26.550Z,40.85
2022-12-09T12:18:53.809Z,40.55
2022-12-09T12:21:56.745Z,39.50
2022-12-09T12:24:42.995Z,32.75
2022-12-09T12:27:10.296Z,34.85
2022-12-09T12:29:37.577Z,43.58
2022-12-09T12:32:07.729Z,32.03
2022-12-09T12:34:39.060Z,40.40
2022-12-09T12:37:09.441Z,43.00
2022-12-09T12:39:39.210Z,42.42
2022-12-09T12:42:26.776Z,38.92
2022-12-09T12:45:20.316Z,31.92
2022-12-09T12:47:54.200Z,29.98
2022-12-09T12:50:35.881Z,27.05
2022-12-09T12:53:18.295Z,29.08
2022-12-09T12:56:00.509Z,40.03
2022-12-09T12:58:33.720Z,37.83
2022-12-09T13:01:08.378Z,35.10
2022-12-09T13:03:54.471Z,30.45
2022-12-09T13:06:23.234Z,34.25
2022-12-09T13:08:58.308Z,33.88
2022-12-09T13:11:46.212Z,29.23
2022-12-09T13:14:18.762Z,34.25
2022-12-09T13:16:46.713Z,30.60
2022-12-09T13:19:22.310Z,28.70
2022-12-09T13:21:50.160Z,32.17
2022-12-09T13:24:44.079Z,26.88
2022-12-09T13:27:17.630Z,27.40
2022-12-09T13:29:48.899Z,31.33
2022-12-09T13:32:16.200Z,30.88
2022-12-09T13:34:50.004Z,35.33
2022-12-09T13:37:55.658Z,33.10
2022-12-09T13:40:27.697Z,32.38
2022-12-09T13:43:07.585Z,34.83
2022-12-09T13:45:37.183Z,30.75
2022-12-09T13:48:27.463Z,32.42
2022-12-09T13:50:57.305Z,26.80
2022-12-09T13:53:34.988Z,34.17
2022-12-09T13:56:04.176Z,29.38
2022-12-09T13:58:49.855Z,31.77
2022-12-09T14:01:20.398Z,40.42
2022-12-09T14:04:07.416Z,39.50
2022-12-09T14:06:41.029Z,33.17
2022-12-09T14:09:22.669Z,34.75
2022-12-09T14:11:51.125Z,33.97
2022-12-09T14:14:24.876Z,30.05
2022-12-09T14:16:52.114Z,33.38
2022-12-09T14:19:25.457Z,33.08
2022-12-09T14:22:18.069Z,34.78
2022-12-09T14:24:46.060Z,44.60
2022-12-09T14:27:14.332Z,32.83
2022-12-09T14:29:44.690Z,33.15
2022-12-09T14:32:25.811Z,37.30
2022-12-09T14:35:11.745Z,34.90
2022-12-09T14:37:40.095Z,44.95
2022-12-09T14:40:16.713Z,30.83
2022-12-09T14:43:02.942Z,33.08
2022-12-09T14:45:33.771Z,39.38
2022-12-09T14:48:02.451Z,34.22
2022-12-09T14:50:29.888Z,40.20
2022-12-09T14:53:02.516Z,37.35
2022-12-09T14:55:30.557Z,34.45
2022-12-09T14:58:00.706Z,28.95
2022-12-09T15:00:28.176Z,29.70
2022-12-09T15:03:30.973Z,35.50
2022-12-09T15:05:54.963Z,33.42
2022-12-09T15:08:48.351Z,34.17
2022-12-09T15:11:17.721Z,28.17
2022-12-09T15:13:47.306Z,28.40
2022-12-09T15:16:16.107Z,32.10
2022-12-09T15:18:44.927Z,33.42
2022-12-09T15:21:20.761Z,35.53
2022-12-09T15:23:48.119Z,37.67
2022-12-09T15:26:24.775Z,44.75
2022-12-09T15:28:53.315Z,43.65
2022-12-09T15:31:22.087Z,44.55
2022-12-09T15:33:50.766Z,41.88
2022-12-09T15:36:21.375Z,40.97
2022-12-09T15:38:51.587Z,38.35
2022-12-09T15:41:38.544Z,40.85
2022-12-09T15:44:12.015Z,43.38
2022-12-09T15:46:40.660Z,47.25
2022-12-09T15:49:09.154Z,45.90
2022-12-09T15:51:37.478Z,38.50
2022-12-09T15:54:10.457Z,48.22
2022-12-09T15:56:40.883Z,80.13
2022-12-09T15:59:13.415Z,70.57
2022-12-09T16:04:09.799Z,94.63
2022-12-09T16:06:38.157Z,128.52
2022-12-09T16:09:13.167Z,70.93
2022-12-09T16:11:44.561Z,61.63
2022-12-09T16:14:12.184Z,50.95
2022-12-09T16:16:50.448Z,43.67
2022-12-09T16:19:29.805Z,44.40
2022-12-09T16:22:05.506Z,38.13
2022-12-09T16:25:06.297Z,44.85
2022-12-09T16:27:22.800Z,52.10
2022-12-09T16:29:52.104Z,48.30
2022-12-09T16:32:19.421Z,44.15
2022-12-09T16:34:48.160Z,44.38
2022-12-09T16:37:27.824Z,54.90
2022-12-09T16:39:55.660Z,53.50
2022-12-09T16:42:24.473Z,50.13
2022-12-09T16:44:51.804Z,54.92
2022-12-09T16:47:24.192Z,50.05
2022-12-09T16:49:51.702Z,62.17
2022-12-09T16:52:22.355Z,49.88
2022-12-09T16:54:50.403Z,55.75
2022-12-09T16:57:18.486Z,51.53
2022-12-09T16:59:46.626Z,59.78
2022-12-09T17:02:23.955Z,63.42
2022-12-09T17:04:51.884Z,65.75
2022-12-09T17:07:19.250Z,60.67
2022-12-09T17:09:46.477Z,61.58
2022-12-09T17:12:13.800Z,63.92
2022-12-09T17:14:42.516Z,59.30
2022-12-09T17:17:09.775Z,59.45
2022-12-09T17:19:37.144Z,57.08
2022-12-09T17:22:04.471Z,58.63
2022-12-09T17:24:31.789Z,65.72
2022-12-09T17:26:59.094Z,58.70
2022-12-09T17:29:26.396Z,61.63
2022-12-09T17:31:53.670Z,55.50
2022-12-09T17:34:21.038Z,60.17
2022-12-09T17:36:48.473Z,59.35
2022-12-09T17:39:16.196Z,60.60
2022-12-09T17:41:44.210Z,64.65
2022-12-09T17:44:11.626Z,65.38
2022-12-09T17:46:38.858Z,67.43
2022-12-09T17:49:06.090Z,73.45
2022-12-09T17:51:36.232Z,66.20
2022-12-09T17:54:03.828Z,54.60
2022-12-09T17:56:31.175Z,70.93
2022-12-09T17:59:00.850Z,67.32
2022-12-09T18:01:28.288Z,51.72
2022-12-09T18:04:04.692Z,54.25
2022-12-09T18:06:35.336Z,52.60
2022-12-09T18:09:03.542Z,60.45
2022-12-09T18:11:32.437Z,54.83
2022-12-09T18:13:59.897Z,53.13
2022-12-09T18:16:27.263Z,47.38
2022-12-09T18:18:54.690Z,58.35
2022-12-09T18:21:23.786Z,52.65
2022-12-09T18:23:51.126Z,44.45
2022-12-09T18:26:19.790Z,49.40
2022-12-09T18:28:47.441Z,44.92
2022-12-09T18:31:19.207Z,45.83
2022-12-09T18:33:46.875Z,43.30
2022-12-09T18:36:16.210Z,42.22
2022-12-09T18:38:43.913Z,44.60
2022-12-09T18:41:15.247Z,44.72
2022-12-09T18:43:43.421Z,52.65
2022-12-09T18:46:12.084Z,49.50
2022-12-09T18:48:40.002Z,39.10
2022-12-09T18:51:11.803Z,44.30
2022-12-09T18:53:39.024Z,43.78
2022-12-09T18:56:06.475Z,36.17
2022-12-09T18:58:57.863Z,42.10
2022-12-09T19:01:25.653Z,45.45
2022-12-09T19:03:54.230Z,41.45
2022-12-09T19:06:21.479Z,37.42
2022-12-09T19:08:53.549Z,42.75
2022-12-09T19:11:26.400Z,37.90
2022-12-09T19:13:54.065Z,46.55
2022-12-09T19:16:21.744Z,46.95
2022-12-09T19:18:49.355Z,44.33
2022-12-09T19:21:17.988Z,42.85
2022-12-09T19:23:45.953Z,37.60
2022-12-09T19:26:14.478Z,42.47
2022-12-09T19:28:46.384Z,43.22
2022-12-09T19:31:18.008Z,48.17
2022-12-09T19:33:45.354Z,41.27
2022-12-09T19:36:12.815Z,42.05
2022-12-09T19:38:40.419Z,33.22
2022-12-09T19:41:08.039Z,45.28
2022-12-09T19:43:35.454Z,51.05
2022-12-09T19:46:03.948Z,37.55
2022-12-09T19:48:31.274Z,36.92
2022-12-09T19:51:02.825Z,33.90
2022-12-09T19:53:30.717Z,33.97
2022-12-09T19:56:00.457Z,38.72
2022-12-09T19:58:27.818Z,35.92
2022-12-09T20:00:55.156Z,35.08
2022-12-09T20:03:22.458Z,41.92
2022-12-09T20:05:54.119Z,40.05
2022-12-09T20:08:21.536Z,46.80
2022-12-09T20:10:49.128Z,33.50
2022-12-09T20:13:16.601Z,46.05
2022-12-09T20:15:43.937Z,30.65
2022-12-09T20:18:11.266Z,28.25
2022-12-09T20:20:38.762Z,31.52
2022-12-09T20:23:06.742Z,31.63
2022-12-09T20:25:34.892Z,33.60
2022-12-09T20:28:02.763Z,31.83
2022-12-09T20:30:32.920Z,34.22
2022-12-09T20:33:00.272Z,38.65
2022-12-09T20:35:28.121Z,30.63
2022-12-09T20:37:55.761Z,51.17
2022-12-09T20:40:23.049Z,33.55
2022-12-09T20:42:50.269Z,33.72
2022-12-09T20:45:17.621Z,24.98
2022-12-09T20:47:44.862Z,33.90
2022-12-09T20:50:12.576Z,20.75
2022-12-09T20:52:40.039Z,31.02
2022-12-09T20:55:07.958Z,29.48
2022-12-09T20:57:35.409Z,31.75
2022-12-09T21:00:02.787Z,38.53
2022-12-09T21:02:31.675Z,30.40
2022-12-09T21:04:58.945Z,29.90
2022-12-09T21:07:26.185Z,32.63
2022-12-09T21:09:53.475Z,24.73
2022-12-09T21:12:20.846Z,24.13
2022-12-09T21:14:48.125Z,26.83
2022-12-09T21:17:15.425Z,18.83
2022-12-09T21:19:42.691Z,27.60
2022-12-09T21:22:09.958Z,24.15
2022-12-09T21:24:37.299Z,23.90
2022-12-09T21:27:04.767Z,25.90
2022-12-09T21:29:32.582Z,29.95
2022-12-09T21:32:00.715Z,23.75
2022-12-09T21:34:28.137Z,19.33
2022-12-09T21:36:55.436Z,25.25
2022-12-09T21:39:22.698Z,22.35
2022-12-09T21:41:49.970Z,21.77
2022-12-09T21:44:18.516Z,21.20
2022-12-09T21:46:46.211Z,26.77
2022-12-09T21:49:13.895Z,17.13
2022-12-09T21:51:41.521Z,19.38
2022-12-09T21:54:08.849Z,20.85
2022-12-09T21:56:36.908Z,24.08
2022-12-09T21:59:05.614Z,19.20
2022-12-09T22:01:34.700Z,21.77
2022-12-09T22:04:02.799Z,20.60
2022-12-09T22:06:30.577Z,21.98
2022-12-09T22:09:02.671Z,21.05
2022-12-09T22:11:31.474Z,20.73
2022-12-09T22:14:01.300Z,22.85
2022-12-09T22:16:30.986Z,16.65
2022-12-09T22:18:59.471Z,19.08
2022-12-09T22:21:28.981Z,16.00
2022-12-09T22:23:57.826Z,15.70
2022-12-09T22:26:25.436Z,16.17
2022-12-09T22:28:53.299Z,13.65
2022-12-09T22:31:25.740Z,14.02
2022-12-09T22:33:55.351Z,11.02
2022-12-09T22:36:23.089Z,18.77
2022-12-09T22:38:50.446Z,12.85
2022-12-09T22:41:20.281Z,16.63
2022-12-09T22:43:49.073Z,20.55
2022-12-09T22:46:17.633Z,9.43
2022-12-09T22:48:45.369Z,17.33
2022-12-09T22:51:14.454Z,15.27
2022-12-09T22:53:42.035Z,18.63
2022-12-09T22:56:09.539Z,10.30
2022-12-09T22:58:36.990Z,17.60
2022-12-09T23:01:09.952Z,16.77
2022-12-09T23:03:37.430Z,18.55
2022-12-09T23:06:04.997Z,15.38
2022-12-09T23:08:32.343Z,11.82
2022-12-09T23:11:08.014Z,20.15
2022-12-09T23:13:40.643Z,18.38
2022-12-09T23:16:09.143Z,11.55
2022-12-09T23:18:36.748Z,18.40
2022-12-09T23:21:05.505Z,15.25
2022-12-09T23:23:33.282Z,22.33
2022-12-09T23:26:07.349Z,22.58
2022-12-09T23:28:42.177Z,12.93
2022-12-09T23:31:11.061Z,10.05
2022-12-09T23:33:39.368Z,9.32
2022-12-09T23:36:11.131Z,9.32
2022-12-09T23:38:38.786Z,18.42
2022-12-09T23:41:06.206Z,6.72
2022-12-09T23:43:34.601Z,7.00
2022-12-09T23:46:02.560Z,7.88
2022-12-09T23:48:30.060Z,9.60
2022-12-09T23:50:57.500Z,11.20
2022-12-09T23:53:24.845Z,4.13
2022-12-09T23:55:52.131Z,7.13
2022-12-09T23:58:19.388Z,5.43
